createdAt,value
2022-08-25T00:01:30.017Z,8.98
2022-08-25T00:04:53.778Z,9.52
2022-08-25T00:08:16.007Z,9.30
2022-08-25T00:11:38.007Z,10.10
2022-08-25T00:14:58.990Z,9.52
2022-08-25T00:18:20.151Z,9.75
2022-08-25T00:21:41.981Z,10.25
2022-08-25T00:25:03.013Z,10.15
2022-08-25T00:28:23.998Z,10.27
2022-08-25T00:31:45.059Z,10.30
2022-08-25T00:35:06.991Z,9.70
2022-08-25T00:38:28.022Z,10.05
2022-08-25T00:41:50.012Z,9.93
2022-08-25T00:45:11.004Z,11.35
2022-08-25T00:48:32.002Z,10.32
2022-08-25T00:52:01.021Z,10.60
2022-08-25T00:55:34.012Z,9.38
2022-08-25T00:58:56.020Z,9.88
2022-08-25T01:02:19.045Z,10.90
2022-08-25T01:05:42.057Z,9.68
2022-08-25T01:09:04.011Z,11.27
2022-08-25T01:12:25.037Z,10.45
2022-08-25T01:15:49.070Z,11.27
2022-08-25T01:19:15.556Z,10.45
2022-08-25T01:22:35.994Z,10.07
2022-08-25T01:26:10.016Z,10.55
2022-08-25T01:29:33.040Z,9.18
2022-08-25T01:32:54.030Z,10.38
2022-08-25T01:36:15.031Z,10.88
2022-08-25T01:39:37.069Z,10.43
2022-08-25T01:43:26.034Z,9.95
2022-08-25T01:46:47.018Z,10.10
2022-08-25T01:50:08.037Z,10.38
2022-08-25T01:53:42.029Z,10.75
2022-08-25T01:57:03.036Z,10.40
2022-08-25T02:00:25.044Z,11.13
2022-08-25T02:03:46.409Z,10.38
2022-08-25T02:07:10.024Z,10.93
2022-08-25T02:10:31.038Z,11.65
2022-08-25T02:13:53.047Z,11.25
2022-08-25T02:17:14.058Z,10.23
2022-08-25T02:20:35.037Z,11.15
2022-08-25T02:23:56.038Z,11.75
2022-08-25T02:27:17.075Z,11.48
2022-08-25T02:30:38.192Z,11.13
2022-08-25T02:33:59.020Z,11.07
2022-08-25T02:37:21.050Z,11.70
2022-08-25T02:40:42.041Z,10.68
2022-08-25T02:44:04.040Z,11.13
2022-08-25T02:47:27.026Z,10.50
2022-08-25T02:50:41.053Z,10.45
2022-08-25T02:54:04.035Z,10.98
2022-08-25T02:57:25.070Z,10.85
2022-08-25T03:00:46.168Z,10.40
2022-08-25T03:04:07.054Z,9.90
2022-08-25T03:07:28.106Z,9.40
2022-08-25T03:10:54.058Z,10.45
2022-08-25T03:14:15.075Z,10.20
2022-08-25T03:17:36.067Z,9.40
2022-08-25T03:20:57.057Z,9.43
2022-08-25T03:24:19.064Z,9.52
2022-08-25T03:27:40.074Z,9.60
2022-08-25T03:31:01.062Z,9.10
2022-08-25T03:34:23.099Z,9.52
2022-08-25T03:37:44.055Z,9.73
2022-08-25T03:41:06.098Z,10.00
2022-08-25T03:44:28.049Z,9.82
2022-08-25T03:47:49.060Z,9.18
2022-08-25T03:51:10.048Z,10.50
2022-08-25T03:54:35.061Z,9.98
2022-08-25T03:57:56.059Z,9.80
2022-08-25T04:01:18.217Z,10.90
2022-08-25T04:04:39.079Z,9.85
2022-08-25T04:08:00.187Z,10.98
2022-08-25T04:11:27.088Z,10.75
2022-08-25T04:14:48.076Z,11.32
2022-08-25T04:18:11.078Z,9.82
2022-08-25T04:21:33.067Z,10.82
2022-08-25T04:24:54.065Z,11.68
2022-08-25T04:28:16.069Z,10.40
2022-08-25T04:31:37.101Z,11.25
2022-08-25T04:34:58.092Z,10.23
2022-08-25T04:38:19.118Z,10.43
2022-08-25T04:41:40.065Z,10.18
2022-08-25T04:45:01.108Z,10.05
2022-08-25T04:48:22.089Z,10.25
2022-08-25T04:51:49.102Z,10.15
2022-08-25T04:55:10.122Z,9.60
2022-08-25T04:58:31.111Z,10.57
2022-08-25T05:01:56.138Z,9.73
2022-08-25T05:05:17.101Z,9.55
2022-08-25T05:08:38.082Z,10.07
2022-08-25T05:11:59.089Z,9.63
2022-08-25T05:15:33.083Z,9.77
2022-08-25T05:18:55.096Z,8.73
2022-08-25T05:22:16.083Z,9.07
2022-08-25T05:25:38.124Z,9.50
2022-08-25T05:28:59.093Z,9.02
2022-08-25T05:32:20.103Z,8.18
2022-08-25T05:35:41.100Z,9.20
2022-08-25T05:39:02.124Z,9.63
2022-08-25T05:42:23.083Z,8.85
2022-08-25T05:45:38.170Z,8.93
2022-08-25T05:49:00.090Z,8.77
2022-08-25T05:52:21.110Z,8.75
2022-08-25T05:55:42.087Z,9.30
2022-08-25T05:59:07.333Z,10.48
2022-08-25T06:02:48.111Z,10.68
2022-08-25T06:06:19.096Z,10.00
2022-08-25T06:09:40.123Z,10.02
2022-08-25T06:13:02.123Z,9.27
2022-08-25T06:16:23.234Z,9.63
2022-08-25T06:19:44.109Z,8.35
2022-08-25T06:23:05.123Z,8.20
2022-08-25T06:26:27.110Z,8.70
2022-08-25T06:29:48.135Z,7.97
2022-08-25T06:33:14.107Z,7.75
2022-08-25T06:36:35.148Z,9.35
2022-08-25T06:39:56.213Z,9.48
2022-08-25T06:43:18.125Z,7.80
2022-08-25T06:46:41.160Z,7.38
2022-08-25T06:50:02.138Z,9.13
2022-08-25T06:53:23.130Z,7.90
2022-08-25T06:56:44.188Z,7.53
2022-08-25T07:00:05.118Z,8.88
2022-08-25T07:03:26.227Z,8.13
2022-08-25T07:06:48.129Z,7.65
2022-08-25T07:10:09.145Z,7.90
2022-08-25T07:13:30.130Z,8.93
2022-08-25T07:16:52.140Z,8.32
2022-08-25T07:20:13.655Z,8.45
2022-08-25T07:23:35.155Z,7.90
2022-08-25T07:26:57.132Z,7.88
2022-08-25T07:30:20.146Z,9.45
2022-08-25T07:33:41.124Z,7.75
2022-08-25T07:37:02.142Z,7.03
2022-08-25T07:40:32.202Z,6.20
2022-08-25T07:43:46.154Z,7.97
2022-08-25T07:47:07.165Z,6.32
2022-08-25T07:50:28.196Z,6.95
2022-08-25T07:53:49.187Z,6.50
2022-08-25T07:57:10.147Z,6.25
2022-08-25T08:00:34.152Z,6.13
2022-08-25T08:04:02.913Z,5.85
2022-08-25T08:07:41.139Z,5.75
2022-08-25T08:11:05.434Z,5.80
2022-08-25T08:14:26.151Z,7.05
2022-08-25T08:17:47.155Z,6.25
2022-08-25T08:21:09.173Z,7.20
2022-08-25T08:24:44.234Z,5.75
2022-08-25T08:28:07.245Z,6.35
2022-08-25T08:31:28.195Z,5.97
2022-08-25T08:34:51.383Z,6.25
2022-08-25T08:38:18.499Z,6.30
2022-08-25T08:42:26.175Z,5.70
2022-08-25T08:45:50.183Z,5.13
2022-08-25T08:49:13.227Z,6.07
2022-08-25T08:53:02.192Z,6.35
2022-08-25T08:56:30.655Z,6.50
2022-08-25T09:00:03.192Z,6.57
2022-08-25T09:03:37.259Z,7.57
2022-08-25T09:07:02.171Z,6.00
2022-08-25T09:10:24.159Z,6.40
2022-08-25T09:14:09.184Z,5.97
2022-08-25T09:18:09.550Z,5.75
2022-08-25T09:21:36.182Z,5.25
2022-08-25T09:25:54.214Z,5.63
2022-08-25T09:29:16.540Z,5.93
2022-08-25T09:33:12.997Z,4.72
2022-08-25T09:37:05.983Z,5.57
2022-08-25T09:40:33.431Z,5.53
2022-08-25T09:44:06.175Z,5.90
2022-08-25T09:47:39.189Z,4.90
2022-08-25T09:51:03.311Z,5.43
2022-08-25T09:54:44.396Z,6.30
2022-08-25T09:58:10.225Z,6.10
2022-08-25T10:01:35.232Z,7.25
2022-08-25T10:04:56.217Z,5.50
2022-08-25T10:08:26.207Z,5.47
2022-08-25T10:11:57.450Z,6.70
2022-08-25T10:15:34.230Z,5.38
2022-08-25T10:18:55.201Z,6.87
2022-08-25T10:22:25.190Z,6.10
2022-08-25T10:25:57.806Z,5.95
2022-08-25T10:29:25.189Z,5.80
2022-08-25T10:32:58.205Z,5.82
2022-08-25T10:36:29.248Z,5.60
2022-08-25T10:39:59.228Z,5.78
2022-08-25T10:43:44.234Z,6.40
2022-08-25T10:47:16.200Z,7.97
2022-08-25T10:51:12.614Z,6.13
2022-08-25T10:54:40.190Z,6.13
2022-08-25T10:58:30.773Z,6.82
2022-08-25T11:02:24.227Z,6.15
2022-08-25T11:06:10.207Z,5.15
2022-08-25T11:09:39.252Z,6.30
2022-08-25T11:13:11.368Z,6.43
2022-08-25T11:16:41.279Z,5.90
2022-08-25T11:20:07.198Z,5.97
2022-08-25T11:23:36.214Z,5.80
2022-08-25T11:27:07.211Z,5.63
2022-08-25T11:30:31.286Z,5.75
2022-08-25T11:33:52.212Z,6.68
2022-08-25T11:37:44.223Z,6.55
2022-08-25T11:41:25.203Z,7.10
2022-08-25T11:45:20.266Z,6.00
2022-08-25T11:49:08.227Z,6.60
2022-08-25T11:52:47.202Z,6.65
2022-08-25T11:56:12.240Z,5.95
2022-08-25T12:00:06.236Z,7.03
2022-08-25T12:04:00.304Z,5.70
2022-08-25T12:07:22.020Z,6.03
2022-08-25T12:11:11.166Z,6.30
2022-08-25T12:14:38.233Z,6.22
2022-08-25T12:17:59.312Z,6.13
2022-08-25T12:21:20.249Z,6.50
2022-08-25T12:24:57.232Z,6.88
2022-08-25T12:28:35.237Z,5.85
2022-08-25T12:32:13.232Z,6.63
2022-08-25T12:35:38.251Z,6.93
2022-08-25T12:39:03.223Z,5.68
2022-08-25T12:42:37.811Z,5.85
2022-08-25T12:46:36.236Z,5.88
2022-08-25T12:49:57.234Z,5.32
2022-08-25T12:53:42.240Z,6.13
2022-08-25T12:57:14.226Z,5.90
2022-08-25T13:00:40.282Z,6.07
2022-08-25T13:04:44.234Z,5.82
2022-08-25T13:08:05.391Z,7.75
2022-08-25T13:11:57.218Z,6.53
2022-08-25T13:15:18.247Z,6.00
2022-08-25T13:18:42.232Z,6.35
2022-08-25T13:22:03.279Z,6.15
2022-08-25T13:25:35.262Z,5.70
2022-08-25T13:29:09.181Z,5.85
2022-08-25T13:32:40.307Z,6.18
2022-08-25T13:36:22.246Z,6.18
2022-08-25T13:39:56.483Z,6.20
2022-08-25T13:43:27.568Z,5.28
2022-08-25T13:46:48.289Z,6.80
2022-08-25T13:50:30.268Z,6.30
2022-08-25T13:53:52.307Z,6.70
2022-08-25T13:57:31.237Z,6.22
2022-08-25T14:00:59.542Z,6.07
2022-08-25T14:04:51.741Z,5.28
2022-08-25T14:08:23.361Z,7.40
2022-08-25T14:12:11.259Z,5.53
2022-08-25T14:15:33.433Z,6.82
2022-08-25T14:19:08.270Z,7.07
2022-08-25T14:22:29.288Z,6.18
2022-08-25T14:25:50.271Z,6.50
2022-08-25T14:29:11.330Z,5.88
2022-08-25T14:32:32.281Z,5.90
2022-08-25T14:35:57.258Z,6.65
2022-08-25T14:39:18.262Z,6.32
2022-08-25T14:42:39.274Z,6.47
2022-08-25T14:46:02.579Z,5.78
2022-08-25T14:49:27.254Z,6.28
2022-08-25T14:52:48.293Z,6.50
2022-08-25T14:56:14.305Z,5.95
2022-08-25T14:59:35.262Z,6.45
2022-08-25T15:02:58.270Z,6.07
2022-08-25T15:06:19.349Z,6.22
2022-08-25T15:09:40.261Z,5.22
2022-08-25T15:13:01.261Z,6.05
2022-08-25T15:16:24.321Z,6.22
2022-08-25T15:19:56.308Z,6.82
2022-08-25T15:23:17.292Z,6.47
2022-08-25T15:26:38.322Z,6.25
2022-08-25T15:29:59.328Z,6.57
2022-08-25T15:33:29.279Z,6.30
2022-08-25T15:36:51.294Z,6.38
2022-08-25T15:40:12.373Z,6.55
2022-08-25T15:43:33.310Z,5.78
2022-08-25T15:46:56.264Z,6.55
2022-08-25T15:50:26.201Z,6.32
2022-08-25T15:53:48.342Z,5.88
2022-08-25T15:57:13.964Z,6.60
2022-08-25T16:00:45.299Z,6.55
2022-08-25T16:04:17.274Z,7.18
2022-08-25T16:07:38.272Z,6.00
2022-08-25T16:10:59.293Z,6.72
2022-08-25T16:14:21.262Z,7.40
2022-08-25T16:17:43.643Z,6.85
2022-08-25T16:21:06.287Z,5.65
2022-08-25T16:24:33.334Z,6.70
2022-08-25T16:27:59.296Z,6.75
2022-08-25T16:31:23.331Z,7.47
2022-08-25T16:34:45.321Z,8.25
2022-08-25T16:38:08.291Z,7.60
2022-08-25T16:41:40.312Z,8.10
2022-08-25T16:45:02.310Z,8.57
2022-08-25T16:48:26.338Z,7.50
2022-08-25T16:51:49.293Z,10.07
2022-08-25T16:55:21.294Z,10.10
2022-08-25T16:58:43.299Z,8.52
2022-08-25T17:02:07.374Z,8.90
2022-08-25T17:05:28.284Z,9.25
2022-08-25T17:08:50.306Z,10.45
2022-08-25T17:12:11.296Z,8.88
2022-08-25T17:15:32.332Z,8.30
2022-08-25T17:18:53.292Z,11.52
2022-08-25T17:22:15.316Z,10.02
2022-08-25T17:25:36.304Z,19.45
2022-08-25T17:28:55.315Z,10.17
2022-08-25T17:32:17.298Z,13.07
2022-08-25T17:35:38.307Z,10.95
2022-08-25T17:38:59.294Z,11.93
2022-08-25T17:42:20.349Z,22.25
2022-08-25T17:46:01.342Z,13.30
2022-08-25T17:49:24.324Z,11.10
2022-08-25T17:52:46.461Z,9.43
2022-08-25T17:56:17.330Z,10.07
2022-08-25T17:59:39.327Z,10.27
2022-08-25T18:03:01.338Z,10.55
2022-08-25T18:06:22.375Z,10.45
2022-08-25T18:09:43.323Z,10.77
2022-08-25T18:13:04.339Z,13.15
2022-08-25T18:16:26.334Z,12.98
2022-08-25T18:19:47.334Z,11.25
2022-08-25T18:23:09.823Z,10.88
2022-08-25T18:26:31.352Z,8.73
2022-08-25T18:29:52.329Z,10.85
2022-08-25T18:33:13.345Z,9.43
2022-08-25T18:36:38.674Z,9.93
2022-08-25T18:40:18.416Z,11.17
2022-08-25T18:43:39.325Z,13.27
2022-08-25T18:47:00.350Z,10.70
2022-08-25T18:50:28.334Z,10.15
2022-08-25T18:53:50.244Z,10.88
2022-08-25T18:57:11.326Z,10.48
2022-08-25T19:00:35.334Z,9.07
2022-08-25T19:03:56.364Z,9.82
2022-08-25T19:07:19.356Z,9.93
2022-08-25T19:10:42.343Z,10.27
2022-08-25T19:14:04.347Z,12.27
2022-08-25T19:17:37.426Z,10.85
2022-08-25T19:20:51.386Z,11.95
2022-08-25T19:24:13.390Z,11.88
2022-08-25T19:27:34.351Z,13.27
2022-08-25T19:30:55.402Z,10.75
2022-08-25T19:34:16.347Z,9.98
2022-08-25T19:37:39.354Z,12.27
2022-08-25T19:41:01.356Z,10.18
2022-08-25T19:44:23.365Z,10.93
2022-08-25T19:47:48.342Z,10.38
2022-08-25T19:51:09.372Z,9.75
2022-08-25T19:54:44.396Z,9.75
2022-08-25T19:58:05.350Z,10.60
2022-08-25T20:01:26.469Z,11.60
2022-08-25T20:04:49.394Z,11.88
2022-08-25T20:08:12.363Z,11.27
2022-08-25T20:11:33.362Z,11.20
2022-08-25T20:14:54.363Z,11.30
2022-08-25T20:18:15.376Z,11.75
2022-08-25T20:21:37.605Z,10.18
2022-08-25T20:24:58.689Z,10.45
2022-08-25T20:28:19.389Z,14.43
2022-08-25T20:31:40.377Z,11.65
2022-08-25T20:35:02.405Z,13.18
2022-08-25T20:38:24.373Z,11.65
2022-08-25T20:41:48.242Z,13.30
2022-08-25T20:45:09.376Z,12.93
2022-08-25T20:48:30.404Z,13.57
2022-08-25T20:51:51.377Z,15.30
2022-08-25T20:55:12.441Z,15.25
2022-08-25T20:58:33.372Z,14.88
2022-08-25T21:01:55.469Z,15.52
2022-08-25T21:05:16.366Z,16.40
2022-08-25T21:08:37.396Z,17.00
2022-08-25T21:12:08.429Z,16.17
2022-08-25T21:15:29.392Z,17.13
2022-08-25T21:18:50.404Z,17.92
2022-08-25T21:22:12.404Z,16.58
2022-08-25T21:25:33.387Z,16.85
2022-08-25T21:28:54.395Z,15.25
2022-08-25T21:32:09.392Z,15.93
2022-08-25T21:35:30.404Z,17.67
2022-08-25T21:38:51.388Z,15.88
2022-08-25T21:42:13.451Z,16.10
2022-08-25T21:45:35.933Z,16.73
2022-08-25T21:48:57.411Z,16.58
2022-08-25T21:52:21.393Z,15.45
2022-08-25T21:55:42.395Z,15.73
2022-08-25T21:59:03.386Z,16.40
2022-08-25T22:02:33.451Z,15.55
2022-08-25T22:05:55.392Z,16.00
2022-08-25T22:09:21.386Z,14.90
2022-08-25T22:12:42.380Z,16.45
2022-08-25T22:16:03.444Z,15.43
2022-08-25T22:19:28.429Z,17.23
2022-08-25T22:22:49.424Z,16.00
2022-08-25T22:26:10.437Z,15.18
2022-08-25T22:29:32.412Z,16.70
2022-08-25T22:32:46.413Z,14.98
2022-08-25T22:36:07.406Z,14.57
2022-08-25T22:39:31.422Z,13.30
2022-08-25T22:42:52.443Z,14.70
2022-08-25T22:46:15.448Z,14.45
2022-08-25T22:49:42.415Z,13.40
2022-08-25T22:53:04.502Z,14.40
2022-08-25T22:56:27.414Z,15.55
2022-08-25T22:59:48.426Z,15.10
2022-08-25T23:03:11.493Z,16.15
2022-08-25T23:06:35.426Z,16.73
2022-08-25T23:09:56.417Z,16.88
2022-08-25T23:13:33.863Z,18.02
2022-08-25T23:16:56.463Z,17.30
2022-08-25T23:20:37.442Z,18.27
2022-08-25T23:24:07.428Z,18.13
2022-08-25T23:27:24.435Z,18.45
2022-08-25T23:30:54.549Z,18.70
2022-08-25T23:34:20.442Z,19.08
2022-08-25T23:37:34.465Z,18.33
2022-08-25T23:40:56.476Z,19.17
2022-08-25T23:44:18.588Z,20.02
2022-08-25T23:47:39.447Z,19.98
2022-08-25T23:51:01.452Z,17.92
2022-08-25T23:54:31.167Z,20.65
2022-08-25T23:57:52.456Z,19.27
